Time;durP1;ratioP1;P1;durP2;ratioP2;P2;SDS_P1;SDS_P2;PMS_P1;PMS_P2;Temp;Humidity;BMP_temperature;BMP_pressure;BME280_temperature;BME280_humidity;BME280_pressure;Samples;Min_cycle;Max_cycle;Signal;HPM_P1;HPM_P2
2022/01/20 00:02:27;;;;;;;10.07;4.23;;;7.40;60.70;;;10.26;47.52;101668.13;5054520;28;20248;-60
2022/01/20 00:05:11;;;;;;;11.90;3.47;;;7.40;60.40;;;10.25;47.39;101671.72;5054580;28;20289;-62
2022/01/20 00:08:04;;;;;;;13.90;3.13;;;7.40;60.20;;;10.22;47.65;101684.34;5054689;28;20190;-60
2022/01/20 00:27:17;;;;;;;7.27;1.87;;;7.40;61.90;;;10.41;48.15;101682.41;5073633;28;20251;-63
2022/01/20 00:35:16;;;;;;;11.07;2.10;;;7.50;63.60;;;10.40;49.14;101680.75;5073304;28;20223;-58
2022/01/20 00:37:45;;;;;;;12.73;2.00;;;7.50;64.50;;;10.38;49.50;101680.09;5073282;28;20292;-59
2022/01/20 00:40:16;;;;;;;9.50;2.30;;;7.50;65.00;;;10.35;49.79;101687.44;5074345;28;20213;-60
2022/01/20 00:42:45;;;;;;;7.30;2.17;;;7.40;65.60;;;10.28;50.33;101681.94;5072781;28;20199;-59
2022/01/20 00:45:13;;;;;;;11.17;2.07;;;7.40;65.60;;;10.23;50.14;101688.63;5074051;28;20189;-61
2022/01/20 00:47:40;;;;;;;5.70;2.00;;;7.30;65.70;;;10.13;50.79;101684.25;5074106;28;20248;-62
2022/01/20 00:50:10;;;;;;;9.00;2.53;;;7.30;65.80;;;10.04;51.23;101671.13;5072241;28;20200;-60
2022/01/20 00:52:38;;;;;;;6.70;2.40;;;7.20;66.10;;;9.98;50.74;101674.38;5073661;28;20193;-63
2022/01/20 00:55:07;;;;;;;8.23;1.83;;;7.20;66.40;;;9.89;50.96;101670.81;5073842;28;20189;-57
2022/01/20 00:57:35;;;;;;;10.47;2.07;;;7.10;66.30;;;9.84;50.86;101673.03;5072463;28;20244;-61
2022/01/20 01:00:08;;;;;;;5.60;1.80;;;7.10;66.60;;;9.78;51.02;101678.91;5073729;28;20185;-62
2022/01/20 01:02:39;;;;;;;10.80;2.33;;;7.00;66.70;;;9.74;51.57;101676.72;5073055;28;20228;-63
2022/01/20 01:05:09;;;;;;;5.97;1.63;;;6.90;66.60;;;9.68;51.39;101677.28;5073688;28;20204;-60
2022/01/20 01:07:51;;;;;;;10.50;2.57;;;6.90;66.90;;;9.64;51.86;101676.75;5073883;28;20197;-63
2022/01/20 01:10:22;;;;;;;11.47;3.10;;;6.80;67.00;;;9.60;51.52;101679.81;5072924;28;20309;-62
2022/01/20 01:13:07;;;;;;;9.13;2.57;;;6.80;67.30;;;9.61;52.27;101670.94;5072127;28;20193;-62
2022/01/20 01:15:41;;;;;;;6.37;1.90;;;6.70;67.60;;;9.62;52.26;101675.25;5073680;28;20191;-63
2022/01/20 01:23:34;;;;;;;10.53;2.70;;;6.80;68.20;;;9.69;51.96;101663.19;5072524;28;20238;-62
2022/01/20 01:26:05;;;;;;;8.97;2.60;;;6.80;68.30;;;9.73;52.40;101670.63;5073078;28;20193;-63
2022/01/20 01:28:33;;;;;;;7.40;2.10;;;6.80;68.40;;;9.77;52.40;101665.91;5072062;28;20548;-62
2022/01/20 01:34:02;;;;;;;10.50;3.03;;;6.90;68.60;;;9.86;52.52;101675.53;5073104;28;20204;-63
2022/01/20 01:36:44;;;;;;;10.67;2.97;;;6.90;68.80;;;9.88;52.69;101679.69;5073269;28;20200;-63
2022/01/20 01:39:12;;;;;;;13.97;2.90;;;6.90;68.90;;;9.91;52.50;101684.63;5073148;28;20204;-59
2022/01/20 01:41:40;;;;;;;6.17;2.73;;;6.90;69.10;;;9.96;52.78;101677.13;5071739;28;20578;-62
2022/01/20 01:44:09;;;;;;;13.97;3.03;;;6.90;69.10;;;9.98;52.27;101677.81;5072681;28;20236;-62
2022/01/20 01:46:38;;;;;;;15.37;3.80;;;7.00;69.30;;;10.01;52.25;101676.69;5073067;28;20220;-61
2022/01/20 01:49:06;;;;;;;13.33;3.63;;;7.00;69.40;;;10.05;52.71;101696.47;5073007;28;20664;-61
2022/01/20 01:51:34;;;;;;;9.37;2.73;;;7.00;69.50;;;10.06;52.65;101693.69;5071868;28;20193;-61
2022/01/20 01:54:01;;;;;;;13.73;3.23;;;7.00;69.70;;;10.10;52.55;101686.34;5072477;28;20228;-62
2022/01/20 01:56:28;;;;;;;10.20;2.37;;;7.10;70.10;;;10.13;53.43;101693.94;5071627;28;20203;-59
2022/01/20 01:58:56;;;;;;;10.37;3.40;;;7.10;70.70;;;10.12;53.14;101713.34;5072984;28;20244;-61
2022/01/20 02:01:25;;;;;;;16.33;3.30;;;7.00;71.40;;;10.09;53.64;101692.56;5072663;28;20578;-62
2022/01/20 02:04:00;;;;;;;8.67;2.60;;;7.00;72.20;;;10.06;54.07;101692.84;5072476;28;20292;-62
2022/01/20 02:18:12;;;;;;;14.03;2.90;;;7.00;72.40;;;9.96;54.74;101686.84;5077053;28;20191;-63
2022/01/20 02:20:41;;;;;;;11.17;1.70;;;6.90;72.60;;;9.93;54.31;101680.06;5076811;28;20223;-59
2022/01/20 02:23:08;;;;;;;9.23;2.77;;;6.90;72.80;;;9.92;54.57;101675.78;5076346;28;20240;-61
2022/01/20 02:25:37;;;;;;;8.67;2.20;;;7.00;72.90;;;9.94;54.55;101694.84;5076636;28;20224;-59
2022/01/20 02:28:08;;;;;;;7.07;1.60;;;6.90;73.10;;;9.95;55.26;101679.91;5076336;28;20200;-58
2022/01/20 02:30:37;;;;;;;7.33;2.27;;;6.90;73.20;;;9.96;55.26;101666.63;5075704;28;20205;-62
2022/01/20 02:33:08;;;;;;;7.50;1.97;;;6.90;73.20;;;9.96;55.06;101669.25;5076018;28;20588;-62
2022/01/20 02:35:40;;;;;;;5.53;1.60;;;6.90;73.60;;;9.94;54.89;101676.44;5076396;28;20274;-60
2022/01/20 02:38:15;;;;;;;5.70;1.40;;;6.90;74.00;;;9.93;55.67;101687.13;5073870;28;20192;-61
2022/01/20 02:46:05;;;;;;;2.60;1.77;;;6.80;74.50;;;9.94;55.19;101709.81;5075687;28;20542;-61
2022/01/20 02:48:34;;;;;;;8.60;2.30;;;6.90;74.30;;;9.99;55.78;101708.41;5076139;28;20572;-61
2022/01/20 02:51:02;;;;;;;4.00;1.53;;;6.90;74.30;;;10.04;55.19;101697.44;5074993;28;20196;-57
2022/01/20 02:53:30;;;;;;;6.90;2.07;;;6.80;74.30;;;10.05;55.29;101702.56;5075581;28;20220;-57
2022/01/20 02:55:58;;;;;;;3.07;1.57;;;6.90;74.20;;;10.07;55.13;101694.53;5076031;28;20641;-57
2022/01/20 02:58:25;;;;;;;6.37;1.60;;;6.90;74.20;;;10.07;54.97;101695.34;5075962;28;20264;-61
2022/01/20 03:00:53;;;;;;;5.23;2.33;;;6.90;74.10;;;10.10;54.91;101691.59;5075165;28;20272;-59
2022/01/20 03:03:21;;;;;;;6.93;1.87;;;7.00;74.10;;;10.15;54.98;101702.50;5074387;28;20213;-57
2022/01/20 03:05:48;;;;;;;9.93;2.63;;;7.00;74.20;;;10.16;55.40;101702.38;5074638;28;20230;-57
2022/01/20 03:08:16;;;;;;;9.47;2.50;;;7.00;74.00;;;10.19;55.00;101699.47;5074961;28;20242;-57
2022/01/20 03:10:46;;;;;;;6.93;2.33;;;7.10;73.90;;;10.20;54.60;101700.28;5073642;28;20189;-61
2022/01/20 03:13:13;;;;;;;6.63;2.40;;;7.10;73.70;;;10.21;55.01;101701.94;5074743;28;20205;-63
2022/01/20 03:15:42;;;;;;;6.23;2.13;;;7.10;73.50;;;10.20;54.95;101703.75;5074810;28;20186;-62
2022/01/20 03:18:10;;;;;;;6.40;2.07;;;7.10;73.30;;;10.18;54.78;101707.50;5074047;28;20199;-62
2022/01/20 03:20:37;;;;;;;7.50;2.57;;;7.00;73.30;;;10.14;54.65;101701.72;5074057;28;20185;-62
2022/01/20 03:23:05;;;;;;;5.93;2.00;;;7.00;73.50;;;10.12;54.95;101715.97;5072857;28;20239;-63
2022/01/20 03:25:33;;;;;;;4.53;2.27;;;7.00;73.50;;;10.13;54.83;101730.78;5074253;28;20191;-63
2022/01/20 03:28:01;;;;;;;6.03;1.70;;;7.00;73.60;;;10.10;54.82;101725.78;5074243;28;20549;-62
2022/01/20 03:30:29;;;;;;;10.33;2.63;;;6.90;72.30;;;10.07;53.73;101718.19;5074236;28;20213;-60
2022/01/20 03:32:56;;;;;;;8.03;2.23;;;6.90;71.30;;;10.02;54.24;101712.53;5073837;28;20189;-61
2022/01/20 03:35:24;;;;;;;9.53;2.83;;;6.80;70.90;;;9.97;53.03;101693.75;5072225;28;20209;-61
2022/01/20 03:37:51;;;;;;;9.97;2.60;;;6.80;70.40;;;9.90;52.41;101695.31;5073258;28;20187;-61
2022/01/20 03:40:20;;;;;;;10.50;2.60;;;6.70;68.60;;;9.80;52.45;101707.66;5074266;28;20544;-61
2022/01/20 03:42:48;;;;;;;7.13;2.50;;;6.70;68.80;;;9.70;52.98;101706.91;5072453;28;20218;-61
2022/01/20 03:45:17;;;;;;;9.93;2.77;;;6.70;69.10;;;9.63;52.84;101716.34;5073096;28;20197;-62
2022/01/20 03:47:44;;;;;;;10.33;2.77;;;6.60;68.80;;;9.59;52.37;101725.47;5074172;28;20719;-62
2022/01/20 03:52:59;;;;;;;11.90;2.73;;;6.50;67.90;;;9.53;51.90;101738.19;5073503;28;20189;-63
2022/01/20 03:55:26;;;;;;;10.93;3.47;;;6.50;67.70;;;9.52;52.18;101752.31;5073840;28;20196;-58
2022/01/20 03:57:53;;;;;;;9.70;3.13;;;6.50;68.00;;;9.51;51.50;101758.53;5072823;28;20189;-61
2022/01/20 04:02:59;;;;;;;18.90;4.17;;;6.50;67.70;;;9.49;51.24;101749.97;5090026;27;20579;-59
2022/01/20 04:05:27;;;;;;;8.53;2.90;;;6.40;66.20;;;9.43;50.88;101747.09;5070140;28;20612;-60
2022/01/20 04:07:54;;;;;;;17.67;3.47;;;6.40;66.60;;;9.39;51.19;101743.06;5059757;28;20682;-61
2022/01/20 04:10:22;;;;;;;12.43;3.40;;;6.40;66.80;;;9.38;51.01;101744.91;5048958;28;20198;-61
2022/01/20 04:12:49;;;;;;;16.97;4.23;;;6.40;66.80;;;9.41;51.23;101759.53;5048298;28;20720;-61
2022/01/20 04:15:18;;;;;;;12.70;4.07;;;6.40;67.40;;;9.42;51.53;101762.03;5050206;28;20196;-61
2022/01/20 04:17:51;;;;;;;10.70;3.27;;;6.40;67.50;;;9.44;51.16;101781.09;5049937;28;20562;-60
2022/01/20 04:20:20;;;;;;;10.03;3.47;;;6.40;67.00;;;9.49;51.45;101792.00;5049929;28;20204;-60
2022/01/20 04:22:47;;;;;;;14.50;3.53;;;6.40;66.80;;;9.53;51.17;101801.25;5050116;28;20301;-61
2022/01/20 04:25:14;;;;;;;13.27;3.73;;;6.40;67.10;;;9.57;50.34;101798.38;5069528;28;20185;-59
2022/01/20 04:27:42;;;;;;;14.90;4.67;;;6.40;65.90;;;9.55;50.13;101796.69;5069533;28;20278;-61
2022/01/20 04:30:10;;;;;;;11.37;3.00;;;6.30;65.10;;;9.51;50.01;101795.31;5069865;28;20194;-63
2022/01/20 04:32:37;;;;;;;14.17;2.97;;;6.30;65.70;;;9.44;49.86;101783.72;5069307;28;20188;-61
2022/01/20 04:35:05;;;;;;;16.70;3.13;;;6.30;66.00;;;9.42;50.13;101790.91;5067948;28;20236;-59
2022/01/20 04:37:34;;;;;;;14.93;3.30;;;6.30;65.50;;;9.44;49.91;101802.13;5068446;28;20282;-60
2022/01/20 04:40:03;;;;;;;12.60;3.10;;;6.30;65.10;;;9.47;50.12;101801.84;5067781;28;20537;-61
2022/01/20 04:42:34;;;;;;;10.93;3.10;;;6.40;64.90;;;9.50;49.71;101804.19;5069118;28;20271;-61
2022/01/20 04:45:07;;;;;;;9.83;3.00;;;6.40;64.90;;;9.54;48.95;101826.59;5068198;28;20690;-60
2022/01/20 04:58:21;;;;;;;11.87;3.27;;;6.40;64.00;;;9.52;48.60;101815.38;5068053;28;20231;-59
2022/01/20 05:00:48;;;;;;;6.60;2.43;;;6.40;62.70;;;9.53;48.31;101817.03;5067883;28;20628;-64
2022/01/20 05:03:16;;;;;;;9.63;2.50;;;6.40;62.00;;;9.54;48.05;101829.22;5068869;28;20641;-60
2022/01/20 05:05:43;;;;;;;9.37;2.03;;;6.40;61.60;;;9.57;48.29;101827.28;5067731;28;20243;-61
2022/01/20 05:08:12;;;;;;;13.33;2.63;;;6.40;62.30;;;9.56;47.89;101831.69;5067720;28;20213;-61
2022/01/20 05:10:39;;;;;;;9.60;2.53;;;6.50;62.60;;;9.57;48.13;101837.78;5068963;28;20213;-58
2022/01/20 05:13:22;;;;;;;6.30;2.00;;;6.50;61.30;;;9.55;47.48;101854.50;5059363;28;20217;-59
2022/01/20 05:15:50;;;;;;;10.67;2.90;;;6.40;61.20;;;9.52;47.26;101846.94;5056039;28;20194;-58
2022/01/20 05:18:18;;;;;;;6.90;2.63;;;6.40;60.90;;;9.47;47.43;101846.50;5055619;28;20190;-61
2022/01/20 05:20:45;;;;;;;8.20;2.80;;;6.30;61.20;;;9.42;47.39;101834.75;5054374;28;20183;-60
2022/01/20 05:23:14;;;;;;;8.27;2.37;;;6.30;61.80;;;9.38;47.68;101852.59;5053842;28;20714;-59
2022/01/20 05:25:41;;;;;;;6.70;2.10;;;6.40;62.20;;;9.35;48.46;101852.03;5055479;28;20224;-61
2022/01/20 05:28:09;;;;;;;9.23;2.30;;;6.30;62.50;;;9.32;48.23;101855.78;5055338;28;20202;-62
2022/01/20 05:30:36;;;;;;;5.63;2.27;;;6.30;61.90;;;9.30;47.98;101862.13;5053817;28;20632;-63
2022/01/20 05:33:03;;;;;;;6.90;3.20;;;6.30;62.20;;;9.27;47.62;101852.72;5054397;28;20527;-61
2022/01/20 05:35:31;;;;;;;8.10;3.17;;;6.20;61.60;;;9.24;47.64;101853.03;5054989;28;20760;-64
2022/01/20 05:37:58;;;;;;;5.33;2.00;;;6.20;62.10;;;9.27;47.87;101857.97;5055419;28;20192;-64
2022/01/20 05:40:28;;;;;;;8.23;2.70;;;6.20;62.40;;;9.28;47.93;101859.66;5054010;28;20276;-63
2022/01/20 05:42:55;;;;;;;9.00;2.50;;;6.20;62.40;;;9.28;48.18;101864.91;5053286;28;20213;-59
2022/01/20 05:45:24;;;;;;;8.87;3.23;;;6.20;63.00;;;9.27;48.80;101879.00;5053474;28;20667;-62
2022/01/20 05:48:07;;;;;;;8.67;3.20;;;6.20;63.20;;;9.23;48.85;101882.88;5054887;28;20228;-58
2022/01/20 05:50:35;;;;;;;9.33;3.27;;;6.20;63.40;;;9.18;48.91;101885.09;5054248;28;20292;-62
2022/01/20 05:53:04;;;;;;;7.20;3.00;;;6.20;63.40;;;9.15;49.32;101895.06;5055146;28;20202;-60
2022/01/20 05:55:34;;;;;;;5.23;2.40;;;6.20;63.70;;;9.15;49.14;101893.22;5054925;28;20201;-62
2022/01/20 05:58:04;;;;;;;9.50;2.77;;;6.20;64.30;;;9.19;49.61;101886.75;5054683;28;20197;-62
2022/01/20 06:00:34;;;;;;;7.83;2.03;;;6.20;64.60;;;9.19;49.25;101901.69;5054562;28;20652;-59
2022/01/20 06:05:49;;;;;;;8.40;3.07;;;6.10;65.20;;;9.15;50.14;101901.09;5054303;28;20186;-61
2022/01/20 06:08:17;;;;;;;12.50;3.30;;;6.10;65.90;;;9.15;50.60;101893.22;5053354;28;20284;-61
2022/01/20 06:10:46;;;;;;;11.90;3.50;;;6.10;66.30;;;9.14;50.17;101883.72;5054404;28;20247;-63
2022/01/20 06:13:18;;;;;;;11.90;3.13;;;6.10;66.40;;;9.10;50.21;101887.59;5053995;28;20275;-62
2022/01/20 06:15:46;;;;;;;10.07;3.60;;;6.10;66.10;;;9.02;50.65;101874.28;5054190;28;20192;-62
2022/01/20 06:18:14;;;;;;;10.37;3.33;;;6.10;66.00;;;8.96;50.50;101890.59;5035412;28;20514;-61
2022/01/20 06:20:41;;;;;;;7.33;2.77;;;6.00;65.90;;;8.91;50.78;101895.44;5053683;28;20286;-62
2022/01/20 06:23:09;;;;;;;10.60;3.90;;;6.00;65.90;;;8.85;50.93;101898.56;5053362;28;20214;-61
2022/01/20 06:25:38;;;;;;;9.47;3.40;;;5.90;66.00;;;8.81;51.10;101891.94;5053307;28;20190;-62
2022/01/20 06:28:06;;;;;;;7.70;2.90;;;5.90;66.00;;;8.78;50.99;101897.44;5054508;28;20226;-62
2022/01/20 06:30:34;;;;;;;10.93;3.23;;;5.90;66.10;;;8.76;50.81;101899.38;5054552;28;20193;-62
2022/01/20 06:33:04;;;;;;;8.60;2.80;;;5.80;66.10;;;8.74;50.91;101911.81;5054158;28;20258;-64
2022/01/20 06:35:32;;;;;;;10.87;4.03;;;5.80;66.30;;;8.72;51.07;101903.25;5038580;28;20644;-63
2022/01/20 06:37:59;;;;;;;6.90;2.67;;;5.80;65.90;;;8.68;50.77;101922.81;5032248;28;20632;-62
2022/01/20 06:40:27;;;;;;;12.63;3.13;;;5.70;65.90;;;8.65;50.98;101937.03;5033907;28;20187;-64
2022/01/20 06:42:54;;;;;;;8.63;3.03;;;5.70;66.00;;;8.64;50.91;101942.44;5033401;28;20271;-58
2022/01/20 06:45:23;;;;;;;8.07;2.40;;;5.60;65.70;;;8.60;50.89;101930.56;5032050;28;20192;-60
2022/01/20 06:47:51;;;;;;;10.17;3.07;;;5.60;66.00;;;8.56;51.43;101939.63;5033329;28;20199;-59
2022/01/20 06:50:19;;;;;;;8.17;2.83;;;5.60;66.30;;;8.54;51.25;101938.94;5034666;28;20224;-64
2022/01/20 06:52:47;;;;;;;8.63;2.33;;;5.60;66.40;;;8.50;50.90;101934.94;5033027;28;20204;-61
2022/01/20 06:55:17;;;;;;;8.37;2.17;;;5.60;66.20;;;8.46;51.23;101941.41;5031813;28;20188;-64
2022/01/20 06:57:49;;;;;;;9.27;2.33;;;5.50;66.30;;;8.42;51.10;101943.44;5015738;28;20198;-62
2022/01/20 07:00:19;;;;;;;7.53;2.43;;;5.50;66.30;;;8.43;51.43;101960.03;5031561;28;20188;-62
2022/01/20 07:02:49;;;;;;;8.77;1.97;;;5.50;66.40;;;8.45;51.14;101960.72;5030733;28;20247;-58
2022/01/20 07:05:22;;;;;;;8.00;2.60;;;5.50;66.60;;;8.48;51.39;101969.16;5047231;28;20198;-63
2022/01/20 07:07:53;;;;;;;13.03;2.60;;;5.50;66.60;;;8.51;50.97;101965.47;5042600;28;20227;-64
2022/01/20 07:10:22;;;;;;;9.57;2.70;;;5.50;66.40;;;8.52;51.33;101972.34;5044137;28;20705;-63
2022/01/20 07:12:50;;;;;;;7.10;2.37;;;5.50;66.20;;;8.53;51.11;101976.66;5034188;28;20202;-61
2022/01/20 07:15:19;;;;;;;8.30;2.57;;;5.50;66.30;;;8.55;50.94;101974.72;5037664;28;20214;-60
2022/01/20 07:17:48;;;;;;;9.57;2.77;;;5.50;66.10;;;8.57;50.98;101964.91;5033972;28;20647;-62
2022/01/20 07:20:17;;;;;;;9.37;2.93;;;5.60;66.00;;;8.61;50.93;101976.81;5031649;28;20184;-63
2022/01/20 07:22:44;;;;;;;6.03;2.73;;;5.60;66.10;;;8.64;50.85;101979.19;5032325;28;20302;-63
2022/01/20 07:25:13;;;;;;;15.77;3.47;;;5.60;66.00;;;8.69;50.44;101987.50;5030832;28;20705;-61
2022/01/20 07:27:40;;;;;;;9.83;2.50;;;5.60;65.50;;;8.72;50.59;101982.78;5031188;28;20226;-63
2022/01/20 07:30:27;;;;;;;8.70;2.03;;;5.70;65.50;;;8.75;50.39;101982.53;5033166;28;20190;-61
2022/01/20 07:32:57;;;;;;;9.63;2.70;;;5.70;65.30;;;8.78;50.18;101982.28;5032012;28;20219;-61
2022/01/20 07:35:24;;;;;;;7.80;2.33;;;5.70;64.50;;;8.82;49.85;101985.47;5032921;28;20236;-61
2022/01/20 07:37:52;;;;;;;5.33;2.40;;;5.70;64.70;;;8.87;50.19;102001.66;5049522;28;20205;-61
2022/01/20 07:40:19;;;;;;;8.83;2.73;;;5.70;64.80;;;8.91;49.73;101992.56;5044738;28;20200;-61
2022/01/20 07:42:47;;;;;;;7.37;2.43;;;5.80;64.50;;;8.90;49.44;102006.63;5033182;28;20302;-62
2022/01/20 07:45:14;;;;;;;6.80;2.07;;;5.80;64.40;;;8.88;49.51;102011.19;5031832;28;20227;-62
2022/01/20 07:47:42;;;;;;;8.87;2.73;;;5.80;63.80;;;8.83;49.65;102010.75;5047481;28;20224;-62
2022/01/20 07:50:11;;;;;;;5.77;2.23;;;5.80;63.60;;;8.79;49.41;102009.38;5053076;28;20191;-62
2022/01/20 07:52:38;;;;;;;7.13;2.30;;;5.80;63.60;;;8.75;49.41;102018.44;5052616;28;20611;-61
2022/01/20 07:55:07;;;;;;;6.77;2.90;;;5.80;63.50;;;8.76;49.30;102030.63;5052116;28;20195;-60
2022/01/20 07:57:35;;;;;;;11.67;2.90;;;5.80;63.80;;;8.80;49.40;102043.34;5050652;28;20188;-61
2022/01/20 08:00:06;;;;;;;9.40;2.37;;;5.80;63.40;;;8.84;49.12;102039.50;5051749;28;20222;-62
2022/01/20 08:02:33;;;;;;;8.97;2.23;;;5.80;64.00;;;8.82;49.60;102030.06;5051468;28;20248;-62
2022/01/20 08:05:02;;;;;;;8.70;2.30;;;5.70;65.20;;;8.79;50.25;102036.41;5043941;28;20319;-65
2022/01/20 08:07:31;;;;;;;10.73;3.13;;;5.70;66.00;;;8.79;50.61;102033.78;5049626;28;20311;-62
2022/01/20 08:09:59;;;;;;;11.63;3.20;;;5.70;66.80;;;8.82;50.55;102040.59;5049854;28;20266;-63
2022/01/20 08:12:30;;;;;;;14.07;3.97;;;5.70;66.50;;;8.85;50.86;102045.56;5047778;28;20251;-63
2022/01/20 08:14:59;;;;;;;8.37;2.90;;;5.70;66.80;;;8.91;50.99;102059.97;5047824;28;20220;-59
2022/01/20 08:17:29;;;;;;;9.70;4.07;;;5.80;67.00;;;8.95;50.80;102035.97;5049543;28;20644;-62
2022/01/20 08:19:58;;;;;;;7.73;2.57;;;5.80;67.20;;;9.00;50.71;102033.78;5035759;28;20297;-64
2022/01/20 08:22:27;;;;;;;6.87;2.10;;;5.80;67.00;;;9.02;50.56;102026.59;5042157;28;20700;-59
2022/01/20 08:25:05;;;;;;;7.13;2.47;;;5.80;66.90;;;9.04;50.67;102024.66;5037874;28;20217;-61
2022/01/20 08:27:36;;;;;;;10.63;3.00;;;5.90;66.80;;;9.03;50.76;102028.25;5031249;28;20288;-60
2022/01/20 08:30:06;;;;;;;8.30;2.77;;;5.90;66.40;;;9.02;50.61;102036.25;5045640;28;20210;-57
2022/01/20 08:32:34;;;;;;;7.17;3.07;;;5.90;66.60;;;9.01;50.83;102035.41;5047188;28;20676;-59
2022/01/20 08:35:05;;;;;;;8.47;2.80;;;5.90;66.90;;;9.05;51.13;102036.84;5035949;28;20230;-57
2022/01/20 08:37:33;;;;;;;8.30;2.47;;;6.00;66.80;;;9.17;50.80;102038.41;5029657;28;20197;-64
2022/01/20 08:40:07;;;;;;;6.73;2.50;;;6.00;66.60;;;9.32;51.03;102039.66;5030497;28;20194;-62
2022/01/20 08:42:35;;;;;;;9.73;3.13;;;6.10;66.60;;;9.50;50.70;102032.81;5030096;28;20217;-63
2022/01/20 08:45:04;;;;;;;11.67;3.80;;;6.20;66.60;;;9.65;49.85;102045.56;5031193;28;20555;-58
2022/01/20 08:47:32;;;;;;;9.83;4.43;;;6.30;65.80;;;9.75;49.90;102047.22;5032474;28;20194;-62
2022/01/20 08:49:59;;;;;;;10.00;2.97;;;6.40;66.00;;;9.82;49.01;102053.59;5018306;28;20209;-61
2022/01/20 08:52:28;;;;;;;14.03;3.10;;;6.40;64.40;;;9.82;49.06;102069.38;5036364;28;20192;-61
2022/01/20 08:54:58;;;;;;;13.13;3.60;;;6.50;63.90;;;9.76;48.56;102058.56;5035030;28;20210;-59
2022/01/20 08:57:28;;;;;;;10.07;3.33;;;6.50;64.50;;;9.65;49.20;102054.25;5035277;28;20195;-63
2022/01/20 08:59:56;;;;;;;9.67;3.57;;;6.40;64.90;;;9.60;49.47;102068.78;5035613;28;20271;-63
2022/01/20 09:02:24;;;;;;;9.47;3.10;;;6.40;65.30;;;9.57;49.55;102069.06;5034202;28;20214;-63
2022/01/20 09:04:51;;;;;;;9.33;3.37;;;6.40;66.00;;;9.54;50.31;102071.00;5036741;28;20234;-62
2022/01/20 09:07:19;;;;;;;10.83;3.37;;;6.30;66.40;;;9.57;50.62;102069.06;5034263;28;20208;-63
2022/01/20 09:09:48;;;;;;;12.70;3.43;;;6.30;66.90;;;9.58;50.42;102054.97;5034593;28;20244;-62
2022/01/20 09:17:33;;;;;;;10.87;3.50;;;6.40;67.20;;;9.64;50.92;102071.00;5035676;28;20225;-62
2022/01/20 09:20:00;;;;;;;11.20;3.47;;;6.50;67.20;;;9.65;50.82;102077.09;5039898;28;20204;-63
2022/01/20 09:22:29;;;;;;;7.67;2.70;;;6.50;66.50;;;9.72;50.43;102072.97;5055060;28;20188;-61
2022/01/20 09:24:57;;;;;;;10.90;3.43;;;6.50;67.00;;;9.87;50.30;102074.22;5055582;28;20290;-63
2022/01/20 09:27:24;;;;;;;11.50;4.37;;;6.60;66.30;;;10.06;50.17;102085.59;5037950;28;20295;-63
2022/01/20 09:29:53;;;;;;;10.13;3.40;;;6.70;66.40;;;10.23;49.33;102084.09;5055613;28;20193;-59
2022/01/20 09:32:21;;;;;;;10.07;3.20;;;6.80;65.10;;;10.32;48.49;102103.50;5055130;28;20198;-62
2022/01/20 09:34:48;;;;;;;7.10;3.03;;;6.90;64.70;;;10.31;48.04;102117.63;5055152;28;20213;-61
2022/01/20 09:37:16;;;;;;;8.73;3.23;;;6.90;63.80;;;10.23;48.91;102109.56;5039123;28;20274;-62
2022/01/20 09:39:44;;;;;;;9.67;3.23;;;6.90;64.40;;;10.13;48.51;102109.56;5053584;28;20200;-62
2022/01/20 09:42:13;;;;;;;6.77;2.43;;;6.80;64.90;;;9.99;48.84;102107.31;5054839;28;20221;-63
2022/01/20 09:44:44;;;;;;;9.73;3.40;;;6.70;64.90;;;9.87;49.44;102100.50;5054670;28;20316;-62
2022/01/20 09:47:16;;;;;;;6.97;2.40;;;6.60;65.60;;;9.72;49.88;102105.34;5054771;28;20214;-61
2022/01/20 09:49:44;;;;;;;10.77;2.57;;;6.50;66.40;;;9.64;49.92;102107.81;5054383;28;20909;-61
2022/01/20 09:52:11;;;;;;;6.57;2.37;;;6.40;67.20;;;9.59;50.71;102111.81;5054945;28;20194;-62
2022/01/20 09:54:39;;;;;;;5.90;1.90;;;6.30;68.00;;;9.50;51.12;102127.44;5054574;28;20656;-62
2022/01/20 09:57:07;;;;;;;7.03;2.60;;;6.20;68.10;;;9.44;51.40;102146.34;5053439;28;20294;-62
2022/01/20 09:59:34;;;;;;;5.50;2.40;;;6.20;68.70;;;9.40;51.44;102157.25;5054105;28;20199;-62
2022/01/20 10:02:07;;;;;;;9.37;1.83;;;6.10;68.70;;;9.25;51.24;102138.38;5054614;28;20227;-62
2022/01/20 10:04:36;;;;;;;5.23;2.40;;;5.90;69.20;;;9.11;51.99;102109.81;5055156;28;20279;-62
2022/01/20 10:07:08;;;;;;;4.43;2.13;;;5.90;70.10;;;9.03;52.50;102108.81;5054552;28;20207;-58
2022/01/20 10:09:39;;;;;;;8.90;2.70;;;5.70;69.90;;;8.96;52.32;102105.06;5055894;28;20281;-59
2022/01/20 10:12:11;;;;;;;5.80;2.60;;;5.70;70.60;;;8.96;53.00;102118.19;5055692;28;20220;-62
2022/01/20 10:14:40;;;;;;;10.33;3.00;;;5.70;70.90;;;9.19;53.38;102115.25;5054081;28;20244;-57
2022/01/20 10:17:17;;;;;;;6.27;1.97;;;5.90;71.80;;;9.70;53.51;102106.44;5053309;28;20713;-62
2022/01/20 10:19:46;;;;;;;7.97;3.23;;;6.20;72.10;;;10.18;52.20;102110.00;5053981;28;20205;-61
2022/01/20 10:22:16;;;;;;;7.73;2.70;;;6.50;71.20;;;10.89;51.92;102113.94;5050973;28;20222;-64
2022/01/20 10:24:59;;;;;;;7.73;2.40;;;6.90;71.30;;;11.78;50.04;102108.03;5034181;28;20293;-64
2022/01/20 10:27:27;;;;;;;5.43;2.77;;;7.50;69.10;;;12.59;48.45;102121.97;5033867;28;20195;-63
2022/01/20 10:29:56;;;;;;;5.13;2.70;;;8.10;67.60;;;13.43;47.24;102120.38;5034287;28;20194;-63
2022/01/20 10:32:24;;;;;;;5.77;2.60;;;8.70;66.70;;;14.18;45.34;102114.13;5035119;28;20205;-63
2022/01/20 10:35:04;;;;;;;6.93;3.33;;;9.30;63.90;;;14.60;44.02;102111.34;5035089;28;20230;-63
2022/01/20 10:37:31;;;;;;;8.90;4.80;;;9.90;62.40;;;15.03;43.38;102110.09;5033274;28;20260;-64
2022/01/20 10:40:12;;;;;;;7.77;3.30;;;10.40;59.90;;;15.67;42.63;102131.13;5046165;28;20198;-64
2022/01/20 10:42:43;;;;;;;15.03;4.70;;;11.00;58.90;;;16.17;41.00;102128.84;5052844;28;21006;-62
2022/01/20 10:45:20;;;;;;;14.00;4.00;;;11.50;56.70;;;16.18;40.30;102122.53;5052876;28;20345;-62
2022/01/20 10:47:51;;;;;;;9.17;4.93;;;11.80;55.00;;;16.02;39.00;102127.94;5054289;28;20273;-62
2022/01/20 10:50:24;;;;;;;10.13;5.50;;;11.90;52.40;;;15.69;39.03;102110.53;5054159;28;20198;-62
2022/01/20 10:52:52;;;;;;;5.93;3.13;;;11.80;52.30;;;15.32;39.05;102113.00;5053423;28;20226;-63
2022/01/20 10:55:24;;;;;;;12.90;3.93;;;11.70;51.50;;;14.92;39.13;102116.63;5047180;28;20659;-62
2022/01/20 10:58:10;;;;;;;15.57;4.20;;;11.40;51.10;;;14.51;39.29;102101.75;5032216;28;20191;-61
2022/01/20 11:00:42;;;;;;;7.63;3.00;;;11.20;51.20;;;14.20;38.37;102109.50;5033254;28;20194;-61
2022/01/20 11:03:10;;;;;;;11.23;3.63;;;10.70;49.60;;;13.96;39.30;102120.03;5033277;28;20272;-60
2022/01/20 11:05:40;;;;;;;9.77;3.47;;;10.50;51.20;;;13.74;39.14;102128.59;5032897;28;20194;-63
2022/01/20 11:08:08;;;;;;;7.43;2.77;;;10.30;50.80;;;13.42;39.97;102130.13;5033509;28;20186;-63
2022/01/20 11:10:39;;;;;;;8.43;3.27;;;10.00;52.90;;;13.10;41.01;102108.81;5033005;28;20190;-62
2022/01/20 11:13:06;;;;;;;9.23;2.47;;;9.80;54.60;;;12.85;41.13;102122.84;5044942;28;20224;-61
2022/01/20 11:15:33;;;;;;;6.07;2.67;;;9.50;54.30;;;12.63;41.51;102116.25;5049579;28;20305;-63
2022/01/20 11:18:03;;;;;;;6.57;2.63;;;9.40;55.40;;;12.47;41.31;102123.19;5050032;28;20255;-61
2022/01/20 11:20:42;;;;;;;8.97;4.80;;;9.10;54.10;;;12.19;40.76;102122.47;5050124;28;20247;-62
2022/01/20 11:23:10;;;;;;;5.00;1.97;;;8.90;53.80;;;12.05;41.37;102126.44;5050085;28;20613;-65
2022/01/20 11:25:40;;;;;;;9.23;2.10;;;8.70;54.40;;;11.91;42.05;102124.31;5050566;28;20280;-62
2022/01/20 11:28:10;;;;;;;6.03;2.20;;;8.60;55.30;;;11.80;41.90;102115.78;5049405;28;20186;-61
2022/01/20 11:30:42;;;;;;;8.70;2.07;;;8.50;55.60;;;11.70;42.27;102128.19;5050906;28;20190;-62
2022/01/20 11:33:12;;;;;;;5.60;1.97;;;8.30;55.00;;;11.57;42.56;102142.56;5049284;28;20277;-64
2022/01/20 11:35:45;;;;;;;6.33;2.90;;;8.30;56.20;;;11.61;42.83;102144.88;5050693;28;20267;-62
2022/01/20 11:38:16;;;;;;;6.23;3.07;;;8.30;56.70;;;11.68;42.77;102141.53;5049518;28;20339;-64
2022/01/20 11:40:53;;;;;;;8.20;2.97;;;8.20;56.60;;;11.68;42.76;102133.63;5049677;28;20276;-64
2022/01/20 11:43:37;;;;;;;4.40;1.70;;;8.20;57.30;;;11.66;42.98;102134.72;5050097;28;20221;-60